Time;durP1;ratioP1;P1;durP2;ratioP2;P2;SDS_P1;SDS_P2;PMS_P1;PMS_P2;Temp;Humidity;BMP_temperature;BMP_pressure;BME280_temperature;BME280_humidity;BME280_pressure;Samples;Min_cycle;Max_cycle;Signal;HPM_P1;HPM_P2
2022/06/12 00:00:11;;;;;;;;;;;23.00;56.30;;;;;;5044676;28;19936;-67
2022/06/12 00:02:37;;;;;;;;;;;22.90;56.40;;;;;;5038578;28;20487;-67
2022/06/12 00:05:06;;;;;;;;;;;22.90;56.40;;;;;;5041268;28;20570;-69
2022/06/12 00:07:33;;;;;;;;;;;22.90;56.50;;;;;;5040184;28;19929;-69
2022/06/12 00:09:59;;;;;;;;;;;22.80;56.40;;;;;;5042822;28;19928;-68
2022/06/12 00:12:26;;;;;;;;;;;22.80;56.50;;;;;;5038256;28;19925;-67
2022/06/12 00:14:55;;;;;;;;;;;22.70;56.60;;;;;;5045270;28;19929;-67
2022/06/12 00:17:22;;;;;;;;;;;22.70;56.60;;;;;;5043217;28;19935;-70
2022/06/12 00:19:49;;;;;;;;;;;22.60;56.60;;;;;;5045820;28;20400;-68
2022/06/12 00:22:17;;;;;;;;;;;22.60;56.60;;;;;;5044962;28;19936;-69
2022/06/12 00:24:44;;;;;;;;;;;22.60;56.60;;;;;;5045420;28;19936;-69
2022/06/12 00:27:11;;;;;;;;;;;22.50;56.60;;;;;;5041419;28;20481;-68
2022/06/12 00:29:39;;;;;;;;;;;22.50;56.70;;;;;;5039506;28;19933;-70
2022/06/12 00:32:07;;;;;;;;;;;22.50;56.70;;;;;;5044374;28;20008;-70
2022/06/12 00:34:37;;;;;;;;;;;22.40;56.70;;;;;;5044672;28;20469;-67
2022/06/12 00:37:04;;;;;;;;;;;22.40;56.90;;;;;;5045131;28;19932;-68
2022/06/12 00:39:32;;;;;;;;;;;22.40;56.90;;;;;;5042845;28;19929;-67
2022/06/12 00:42:00;;;;;;;;;;;22.30;57.00;;;;;;5044581;28;20404;-67
2022/06/12 00:44:29;;;;;;;;;;;22.30;57.10;;;;;;5041593;28;19979;-68
2022/06/12 00:46:57;;;;;;;;;;;22.30;57.10;;;;;;5043643;28;19936;-69
2022/06/12 00:49:25;;;;;;;;;;;22.30;57.10;;;;;;5043367;28;19929;-69
2022/06/12 00:51:54;;;;;;;;;;;22.20;57.20;;;;;;5045491;28;19929;-68
2022/06/12 00:54:21;;;;;;;;;;;22.20;57.40;;;;;;5044951;28;20406;-67
2022/06/12 00:56:50;;;;;;;;;;;22.10;57.50;;;;;;5043552;28;19929;-68
2022/06/12 00:59:19;;;;;;;;;;;22.10;57.50;;;;;;5046070;28;19933;-68
2022/06/12 01:01:47;;;;;;;;;;;22.10;57.60;;;;;;5042407;28;19929;-68
2022/06/12 01:07:00;;;;;;;;;;;22.00;57.80;;;;;;5039901;28;20074;-66
2022/06/12 01:09:30;;;;;;;;;;;22.00;58.00;;;;;;5038022;28;20388;-68
2022/06/12 01:11:59;;;;;;;;;;;22.00;58.00;;;;;;5044368;28;20396;-69
2022/06/12 01:14:28;;;;;;;;;;;21.90;58.20;;;;;;5044144;28;19925;-70
2022/06/12 01:16:56;;;;;;;;;;;21.90;58.30;;;;;;5041977;28;19925;-70
2022/06/12 01:19:26;;;;;;;;;;;21.80;58.40;;;;;;5043333;28;20020;-67
2022/06/12 01:22:00;;;;;;;;;;;21.80;58.50;;;;;;5043388;28;19929;-69
2022/06/12 01:24:42;;;;;;;;;;;21.70;58.50;;;;;;5047780;28;19929;-68
2022/06/12 01:27:20;;;;;;;;;;;21.70;58.60;;;;;;5038648;28;19940;-70
2022/06/12 01:29:51;;;;;;;;;;;21.70;58.70;;;;;;5037595;28;19979;-69
2022/06/12 01:32:19;;;;;;;;;;;21.60;58.70;;;;;;5037034;28;19925;-69
2022/06/12 01:34:50;;;;;;;;;;;21.60;58.80;;;;;;5031081;28;20071;-69
2022/06/12 01:37:23;;;;;;;;;;;21.50;58.90;;;;;;5032722;28;19944;-68
2022/06/12 01:39:52;;;;;;;;;;;21.60;59.00;;;;;;5035615;28;19937;-68
2022/06/12 01:42:23;;;;;;;;;;;21.50;59.10;;;;;;5036043;28;19933;-66
2022/06/12 01:44:55;;;;;;;;;;;21.50;59.10;;;;;;5041478;28;20388;-66
2022/06/12 01:47:25;;;;;;;;;;;21.50;59.20;;;;;;5040586;28;20062;-67
2022/06/12 01:49:57;;;;;;;;;;;21.40;59.40;;;;;;5040936;28;19936;-68
2022/06/12 01:52:28;;;;;;;;;;;21.40;59.40;;;;;;5041914;28;19964;-69
2022/06/12 01:54:59;;;;;;;;;;;21.30;59.40;;;;;;5044323;28;19935;-68
2022/06/12 01:57:29;;;;;;;;;;;21.30;59.50;;;;;;5043979;28;19935;-68
2022/06/12 01:59:59;;;;;;;;;;;21.30;59.60;;;;;;5045255;28;19929;-68
2022/06/12 02:02:29;;;;;;;;;;;21.30;59.70;;;;;;5040759;28;20521;-67
2022/06/12 02:04:59;;;;;;;;;;;21.20;59.70;;;;;;5040165;28;19986;-69
2022/06/12 02:07:28;;;;;;;;;;;21.20;59.80;;;;;;5041045;28;19928;-71
2022/06/12 02:09:57;;;;;;;;;;;21.10;59.90;;;;;;5043320;28;19929;-69
2022/06/12 02:15:14;;;;;;;;;;;21.10;60.10;;;;;;5042050;28;19954;-67
2022/06/12 02:17:44;;;;;;;;;;;21.00;60.10;;;;;;5039185;28;20720;-69
2022/06/12 02:20:12;;;;;;;;;;;21.00;60.20;;;;;;5040944;28;19929;-67
2022/06/12 02:22:39;;;;;;;;;;;21.00;60.30;;;;;;5040808;28;19936;-70
2022/06/12 02:25:09;;;;;;;;;;;20.90;60.50;;;;;;5042034;28;19933;-70
2022/06/12 02:27:38;;;;;;;;;;;20.90;60.50;;;;;;5042095;28;19928;-68
2022/06/12 02:30:09;;;;;;;;;;;20.90;60.60;;;;;;5037256;28;19982;-69
2022/06/12 02:32:39;;;;;;;;;;;20.80;60.70;;;;;;5042608;28;19928;-66
2022/06/12 02:35:07;;;;;;;;;;;20.80;60.80;;;;;;5042900;28;19935;-66
2022/06/12 02:37:36;;;;;;;;;;;20.80;60.90;;;;;;5043546;28;19929;-68
2022/06/12 02:40:06;;;;;;;;;;;20.80;61.10;;;;;;5036512;28;20297;-67
2022/06/12 02:42:37;;;;;;;;;;;20.70;61.20;;;;;;5037221;28;20063;-67
2022/06/12 02:45:07;;;;;;;;;;;20.60;61.30;;;;;;5039886;28;19936;-69
2022/06/12 02:47:35;;;;;;;;;;;20.60;61.40;;;;;;5040464;28;19929;-67
2022/06/12 02:50:04;;;;;;;;;;;20.60;61.60;;;;;;5042504;28;19951;-68
2022/06/12 02:52:34;;;;;;;;;;;20.60;61.80;;;;;;5042137;28;19929;-67
2022/06/12 02:55:06;;;;;;;;;;;20.60;62.10;;;;;;5043774;28;20014;-67
2022/06/12 02:57:34;;;;;;;;;;;20.50;62.00;;;;;;5042320;28;19933;-68
2022/06/12 03:00:06;;;;;;;;;;;20.50;62.00;;;;;;5043157;28;19933;-69
2022/06/12 03:02:35;;;;;;;;;;;20.50;62.10;;;;;;5038744;28;19929;-68
2022/06/12 03:05:03;;;;;;;;;;;20.40;62.10;;;;;;5040922;28;19940;-68
2022/06/12 03:07:31;;;;;;;;;;;20.40;62.20;;;;;;5039310;28;19928;-67
2022/06/12 03:09:59;;;;;;;;;;;20.40;62.40;;;;;;5041939;28;19978;-68
2022/06/12 03:12:28;;;;;;;;;;;20.40;62.60;;;;;;5040987;28;19928;-68
2022/06/12 03:14:54;;;;;;;;;;;20.30;62.70;;;;;;5042118;28;19998;-67
2022/06/12 03:17:21;;;;;;;;;;;20.30;62.70;;;;;;5039624;28;19932;-67
2022/06/12 03:19:50;;;;;;;;;;;20.20;62.70;;;;;;5041066;28;19936;-67
2022/06/12 03:22:22;;;;;;;;;;;20.20;62.70;;;;;;5041433;28;20798;-70
2022/06/12 03:25:02;;;;;;;;;;;20.20;62.90;;;;;;5040965;28;20292;-67
2022/06/12 03:27:38;;;;;;;;;;;20.20;63.00;;;;;;5042040;28;19928;-67
2022/06/12 03:30:08;;;;;;;;;;;20.10;63.00;;;;;;5032211;28;19929;-69
2022/06/12 03:32:39;;;;;;;;;;;20.10;63.10;;;;;;5038211;28;20267;-68
2022/06/12 03:35:11;;;;;;;;;;;20.10;63.20;;;;;;5041242;28;20281;-67
2022/06/12 03:37:41;;;;;;;;;;;20.10;63.30;;;;;;5041312;28;19936;-69
2022/06/12 03:40:12;;;;;;;;;;;20.00;63.30;;;;;;5041577;28;19933;-70
2022/06/12 03:42:42;;;;;;;;;;;19.90;63.40;;;;;;5039165;28;19929;-70
2022/06/12 03:45:11;;;;;;;;;;;20.00;63.40;;;;;;5036676;28;19951;-71
2022/06/12 03:47:41;;;;;;;;;;;19.90;63.40;;;;;;5039118;28;20430;-70
2022/06/12 03:50:11;;;;;;;;;;;19.90;63.50;;;;;;5037446;28;19940;-68
2022/06/12 03:52:41;;;;;;;;;;;19.80;63.70;;;;;;5040450;28;19936;-71
2022/06/12 03:55:12;;;;;;;;;;;19.80;63.70;;;;;;5041244;28;19940;-68
2022/06/12 03:57:51;;;;;;;;;;;19.80;64.00;;;;;;5039206;28;19983;-70
2022/06/12 04:00:19;;;;;;;;;;;19.80;63.90;;;;;;5039546;28;20464;-69
2022/06/12 04:02:47;;;;;;;;;;;19.80;64.00;;;;;;5037708;28;20345;-67
2022/06/12 04:05:18;;;;;;;;;;;19.70;64.00;;;;;;5040060;28;20156;-69
2022/06/12 04:07:46;;;;;;;;;;;19.70;64.00;;;;;;5035035;28;19936;-66
2022/06/12 04:10:17;;;;;;;;;;;19.70;64.10;;;;;;5040895;28;20519;-67
2022/06/12 04:12:44;;;;;;;;;;;19.60;64.10;;;;;;5041433;28;20396;-67
2022/06/12 04:15:14;;;;;;;;;;;19.60;64.20;;;;;;5039076;28;20362;-69
2022/06/12 04:17:40;;;;;;;;;;;19.60;64.20;;;;;;5038589;28;20393;-69
2022/06/12 04:20:13;;;;;;;;;;;19.60;64.40;;;;;;5040841;28;19929;-68
2022/06/12 04:22:43;;;;;;;;;;;19.50;64.40;;;;;;5038067;28;19929;-69
2022/06/12 04:25:19;;;;;;;;;;;19.50;64.50;;;;;;5041853;28;19959;-69
2022/06/12 04:27:46;;;;;;;;;;;19.50;64.60;;;;;;5038729;28;19935;-67
2022/06/12 04:30:18;;;;;;;;;;;19.50;64.60;;;;;;5031540;28;19932;-66
2022/06/12 04:32:45;;;;;;;;;;;19.50;64.70;;;;;;5032226;28;19925;-68
2022/06/12 04:35:12;;;;;;;;;;;19.40;64.90;;;;;;5041807;28;19933;-69
2022/06/12 04:37:38;;;;;;;;;;;19.40;64.90;;;;;;5035154;28;19936;-67
2022/06/12 04:40:08;;;;;;;;;;;19.40;64.90;;;;;;5039895;28;19991;-69
2022/06/12 04:42:36;;;;;;;;;;;19.40;65.00;;;;;;5042011;28;19929;-68
2022/06/12 04:45:05;;;;;;;;;;;19.30;65.00;;;;;;5043252;28;19929;-72
2022/06/12 04:47:32;;;;;;;;;;;19.30;65.20;;;;;;5042597;28;19940;-69
2022/06/12 04:49:59;;;;;;;;;;;19.30;65.20;;;;;;5044994;28;19932;-68
2022/06/12 04:52:26;;;;;;;;;;;19.30;65.30;;;;;;5044371;28;19932;-72
2022/06/12 04:54:53;;;;;;;;;;;19.30;65.50;;;;;;5046004;28;19929;-70
2022/06/12 04:57:20;;;;;;;;;;;19.20;65.50;;;;;;5042869;28;19932;-67
2022/06/12 04:59:48;;;;;;;;;;;19.20;65.60;;;;;;5045729;28;19929;-67
2022/06/12 05:02:15;;;;;;;;;;;19.20;65.70;;;;;;5040606;28;19939;-67
2022/06/12 05:04:43;;;;;;;;;;;19.20;65.70;;;;;;5040779;28;20737;-68
2022/06/12 05:07:11;;;;;;;;;;;19.20;65.90;;;;;;5044203;28;20406;-66
2022/06/12 05:09:40;;;;;;;;;;;19.20;65.80;;;;;;5043245;28;19935;-71
2022/06/12 05:12:07;;;;;;;;;;;19.10;65.90;;;;;;5043854;28;19929;-70
2022/06/12 05:14:34;;;;;;;;;;;19.10;66.00;;;;;;5044004;28;20611;-67
2022/06/12 05:17:03;;;;;;;;;;;19.10;66.00;;;;;;5043429;28;19935;-69
2022/06/12 05:19:31;;;;;;;;;;;19.10;65.90;;;;;;5042599;28;19929;-68
2022/06/12 05:21:58;;;;;;;;;;;19.10;65.90;;;;;;5042838;28;19932;-68
2022/06/12 05:24:24;;;;;;;;;;;19.10;65.80;;;;;;5044734;28;20043;-70
2022/06/12 05:26:52;;;;;;;;;;;19.10;65.90;;;;;;5042716;28;19929;-68
2022/06/12 05:29:20;;;;;;;;;;;19.10;66.00;;;;;;5039794;28;19936;-67
2022/06/12 05:31:47;;;;;;;;;;;19.10;66.00;;;;;;5037084;28;19956;-68
2022/06/12 05:34:15;;;;;;;;;;;19.20;66.10;;;;;;5031765;28;19928;-67
2022/06/12 05:36:42;;;;;;;;;;;19.20;66.00;;;;;;5035857;28;19932;-68
2022/06/12 05:39:09;;;;;;;;;;;19.10;65.90;;;;;;5042704;28;19936;-71
2022/06/12 05:41:35;;;;;;;;;;;19.20;65.90;;;;;;5040635;28;19937;-71
2022/06/12 05:44:02;;;;;;;;;;;19.20;65.90;;;;;;5041326;28;19929;-67
2022/06/12 05:46:29;;;;;;;;;;;19.20;65.80;;;;;;5038302;28;19971;-67
2022/06/12 05:48:55;;;;;;;;;;;19.20;65.80;;;;;;5042983;28;19986;-67
2022/06/12 05:51:23;;;;;;;;;;;19.20;65.80;;;;;;5043031;28;19933;-70
2022/06/12 05:53:49;;;;;;;;;;;19.20;65.90;;;;;;5043795;28;20171;-66
2022/06/12 05:56:17;;;;;;;;;;;19.20;65.80;;;;;;5042701;28;19929;-68
2022/06/12 05:58:44;;;;;;;;;;;19.30;65.90;;;;;;5043911;28;19928;-69
2022/06/12 06:01:13;;;;;;;;;;;19.20;65.90;;;;;;5042772;28;19931;-68
2022/06/12 06:03:39;;;;;;;;;;;19.30;66.00;;;;;;5037932;28;20021;-69
2022/06/12 06:06:06;;;;;;;;;;;19.30;66.00;;;;;;5043753;28;19936;-67
2022/06/12 06:08:35;;;;;;;;;;;19.30;66.00;;;;;;5043243;28;19929;-69
2022/06/12 06:11:01;;;;;;;;;;;19.30;66.00;;;;;;5042035;28;19929;-68
2022/06/12 06:13:28;;;;;;;;;;;19.30;66.10;;;;;;5040935;28;19940;-67
2022/06/12 06:15:54;;;;;;;;;;;19.40;66.10;;;;;;5042672;28;19933;-68
2022/06/12 06:18:21;;;;;;;;;;;19.40;66.00;;;;;;5044136;28;19936;-69
2022/06/12 06:20:48;;;;;;;;;;;19.40;66.20;;;;;;5041903;28;20332;-68
2022/06/12 06:23:15;;;;;;;;;;;19.40;66.10;;;;;;5042600;28;19928;-68
2022/06/12 06:25:43;;;;;;;;;;;19.40;65.90;;;;;;5042441;28;19940;-67
2022/06/12 06:28:11;;;;;;;;;;;19.40;66.00;;;;;;5041141;28;20339;-71
2022/06/12 06:30:38;;;;;;;;;;;19.40;66.00;;;;;;5038978;28;19951;-70
2022/06/12 06:33:04;;;;;;;;;;;19.40;66.10;;;;;;5038178;28;19973;-67
2022/06/12 06:35:31;;;;;;;;;;;19.50;66.10;;;;;;5043689;28;20471;-70
2022/06/12 06:37:58;;;;;;;;;;;19.50;65.80;;;;;;5042918;28;19935;-67
2022/06/12 06:40:26;;;;;;;;;;;19.50;66.00;;;;;;5039873;28;19939;-71
2022/06/12 06:42:54;;;;;;;;;;;19.50;66.10;;;;;;5037294;28;19933;-69
2022/06/12 06:48:06;;;;;;;;;;;19.60;66.10;;;;;;5036122;28;19936;-70
2022/06/12 06:50:32;;;;;;;;;;;19.60;65.80;;;;;;5041031;28;19979;-67
2022/06/12 06:53:00;;;;;;;;;;;19.60;65.60;;;;;;5042145;28;19935;-68
2022/06/12 06:55:26;;;;;;;;;;;19.70;66.00;;;;;;5041247;28;19928;-69
2022/06/12 06:57:54;;;;;;;;;;;19.70;66.10;;;;;;5041733;28;20672;-68
2022/06/12 07:00:22;;;;;;;;;;;19.70;66.00;;;;;;5037324;28;20284;-68
2022/06/12 07:02:49;;;;;;;;;;;19.70;65.70;;;;;;5034903;28;19936;-67
2022/06/12 07:05:15;;;;;;;;;;;19.70;65.80;;;;;;5036068;28;19933;-68
2022/06/12 07:07:42;;;;;;;;;;;19.80;65.80;;;;;;5043086;28;19935;-67
2022/06/12 07:10:10;;;;;;;;;;;19.80;65.80;;;;;;5041192;28;19951;-71
2022/06/12 07:12:36;;;;;;;;;;;19.80;66.00;;;;;;5042149;28;19933;-70
2022/06/12 07:15:05;;;;;;;;;;;19.90;66.20;;;;;;5041773;28;19940;-69
2022/06/12 07:17:31;;;;;;;;;;;19.90;66.20;;;;;;5037375;28;21841;-67
2022/06/12 07:19:58;;;;;;;;;;;19.90;66.30;;;;;;5038730;28;19929;-67
2022/06/12 07:22:25;;;;;;;;;;;20.00;66.50;;;;;;5042890;28;20452;-68
2022/06/12 07:24:52;;;;;;;;;;;19.90;66.40;;;;;;5042735;28;19928;-67
2022/06/12 07:27:18;;;;;;;;;;;20.00;66.60;;;;;;5037817;28;19933;-68
2022/06/12 07:29:45;;;;;;;;;;;20.00;66.60;;;;;;5038581;28;20392;-69
2022/06/12 07:32:13;;;;;;;;;;;20.00;66.60;;;;;;5040415;28;19938;-69
2022/06/12 07:34:40;;;;;;;;;;;20.10;66.50;;;;;;5037247;28;19925;-71
2022/06/12 07:37:07;;;;;;;;;;;20.10;66.20;;;;;;5039768;28;19990;-70
2022/06/12 07:39:34;;;;;;;;;;;20.20;66.20;;;;;;5040415;28;19933;-67
2022/06/12 07:42:02;;;;;;;;;;;20.20;66.30;;;;;;5036540;28;19958;-71
2022/06/12 07:44:30;;;;;;;;;;;20.20;66.30;;;;;;5041817;28;20439;-68
2022/06/12 07:46:57;;;;;;;;;;;20.20;66.50;;;;;;5037945;28;20408;-70
2022/06/12 07:49:26;;;;;;;;;;;20.30;65.90;;;;;;5037600;28;19979;-70
2022/06/12 07:51:54;;;;;;;;;;;20.30;66.30;;;;;;5032842;28;19940;-68
2022/06/12 07:54:20;;;;;;;;;;;20.30;66.20;;;;;;5041563;28;19932;-67
2022/06/12 07:56:47;;;;;;;;;;;20.40;66.40;;;;;;5040448;28;19937;-70
2022/06/12 07:59:14;;;;;;;;;;;20.40;65.70;;;;;;5045473;28;19936;-68
2022/06/12 08:01:42;;;;;;;;;;;20.40;66.50;;;;;;5033425;28;19937;-70
2022/06/12 08:04:09;;;;;;;;;;;20.50;66.60;;;;;;5037619;28;20553;-71
2022/06/12 08:06:37;;;;;;;;;;;20.50;66.50;;;;;;5041113;28;20391;-68
2022/06/12 08:09:05;;;;;;;;;;;20.50;66.50;;;;;;5042054;28;19940;-68
2022/06/12 08:11:32;;;;;;;;;;;20.60;66.60;;;;;;5038501;28;19939;-68
2022/06/12 08:13:59;;;;;;;;;;;20.60;66.50;;;;;;5045991;28;19983;-68
2022/06/12 08:16:26;;;;;;;;;;;20.60;66.60;;;;;;5043859;28;19935;-69
2022/06/12 08:18:52;;;;;;;;;;;20.70;66.60;;;;;;5045225;28;19936;-68
2022/06/12 08:21:20;;;;;;;;;;;20.70;66.60;;;;;;5040640;28;19929;-68
2022/06/12 08:23:49;;;;;;;;;;;20.70;66.60;;;;;;5045787;28;19937;-69
2022/06/12 08:26:18;;;;;;;;;;;20.80;66.80;;;;;;5044291;28;19975;-67
2022/06/12 08:28:46;;;;;;;;;;;20.90;66.20;;;;;;5043198;28;19972;-69
2022/06/12 08:31:15;;;;;;;;;;;20.90;66.30;;;;;;5044367;28;19929;-69
2022/06/12 08:33:43;;;;;;;;;;;20.90;66.90;;;;;;5043339;28;20357;-70
2022/06/12 08:36:10;;;;;;;;;;;21.00;66.90;;;;;;5043130;28;20347;-69
2022/06/12 08:38:37;;;;;;;;;;;21.00;66.00;;;;;;5042378;28;19929;-68
2022/06/12 08:41:08;;;;;;;;;;;21.00;66.70;;;;;;5044963;28;20301;-68
2022/06/12 08:43:37;;;;;;;;;;;21.10;66.10;;;;;;5041981;28;19940;-69
2022/06/12 08:46:08;;;;;;;;;;;21.20;66.80;;;;;;5043602;28;19933;-67
2022/06/12 08:48:41;;;;;;;;;;;21.20;66.30;;;;;;5039098;28;20701;-72
2022/06/12 08:51:10;;;;;;;;;;;21.20;66.90;;;;;;5042120;28;19939;-68
2022/06/12 08:53:39;;;;;;;;;;;21.30;66.90;;;;;;5044590;28;19929;-67
2022/06/12 08:56:11;;;;;;;;;;;21.30;67.00;;;;;;5044467;28;19924;-68
2022/06/12 08:58:41;;;;;;;;;;;21.40;66.10;;;;;;5046894;28;19932;-69
2022/06/12 09:01:08;;;;;;;;;;;21.30;66.70;;;;;;5042368;28;19933;-70
2022/06/12 09:03:37;;;;;;;;;;;21.50;66.60;;;;;;5039499;28;19968;-69
2022/06/12 09:06:07;;;;;;;;;;;21.50;66.00;;;;;;5042424;28;19925;-69
2022/06/12 09:08:44;;;;;;;;;;;21.50;65.20;;;;;;5044090;28;19932;-68
2022/06/12 09:11:15;;;;;;;;;;;21.60;65.90;;;;;;5044305;28;19928;-67
2022/06/12 09:13:47;;;;;;;;;;;21.60;66.60;;;;;;5045553;28;20006;-69
2022/06/12 09:16:18;;;;;;;;;;;21.70;65.60;;;;;;5040264;28;19928;-68
2022/06/12 09:18:47;;;;;;;;;;;21.80;64.60;;;;;;5042460;28;19928;-68
2022/06/12 09:21:16;;;;;;;;;;;21.80;65.20;;;;;;5038447;28;19936;-68
2022/06/12 09:23:50;;;;;;;;;;;21.80;65.00;;;;;;5044587;28;19935;-69
2022/06/12 09:26:23;;;;;;;;;;;21.90;65.00;;;;;;5042257;28;20357;-69
2022/06/12 09:28:54;;;;;;;;;;;21.90;63.50;;;;;;5041004;28;20672;-68
2022/06/12 09:31:24;;;;;;;;;;;22.00;64.20;;;;;;5042792;28;20509;-68
2022/06/12 09:33:55;;;;;;;;;;;22.00;63.80;;;;;;5039481;28;19933;-69
2022/06/12 09:36:28;;;;;;;;;;;22.10;64.00;;;;;;5037494;28;19929;-69
2022/06/12 09:39:00;;;;;;;;;;;22.20;63.00;;;;;;5041857;28;19928;-69
2022/06/12 09:41:32;;;;;;;;;;;22.20;63.50;;;;;;5040551;28;19940;-68
2022/06/12 09:44:06;;;;;;;;;;;22.30;63.40;;;;;;5041623;28;19940;-68
2022/06/12 09:46:37;;;;;;;;;;;22.40;63.30;;;;;;5042583;28;19932;-68
2022/06/12 09:49:10;;;;;;;;;;;22.40;63.00;;;;;;5038150;28;19935;-68
2022/06/12 09:51:43;;;;;;;;;;;22.50;62.70;;;;;;5037822;28;19936;-68
2022/06/12 09:54:26;;;;;;;;;;;22.60;62.40;;;;;;5044454;28;19929;-71
2022/06/12 09:56:59;;;;;;;;;;;22.60;61.60;;;;;;5041004;28;20750;-71
2022/06/12 09:59:29;;;;;;;;;;;22.70;61.20;;;;;;5047619;28;19932;-70
2022/06/12 10:01:58;;;;;;;;;;;22.80;60.80;;;;;;5036337;28;19936;-70
2022/06/12 10:04:30;;;;;;;;;;;22.80;60.50;;;;;;5039766;28;19932;-71
2022/06/12 10:06:59;;;;;;;;;;;22.90;60.30;;;;;;5043289;28;19961;-70
2022/06/12 10:09:29;;;;;;;;;;;23.00;60.20;;;;;;5042772;28;19929;-69
2022/06/12 10:12:01;;;;;;;;;;;23.10;59.80;;;;;;5040724;28;19960;-69
2022/06/12 10:14:29;;;;;;;;;;;23.10;59.70;;;;;;5040334;28;19937;-71
2022/06/12 10:16:57;;;;;;;;;;;23.20;59.60;;;;;;5046943;28;19935;-67
2022/06/12 10:19:25;;;;;;;;;;;23.30;59.20;;;;;;5040937;28;19937;-67
2022/06/12 10:21:54;;;;;;;;;;;23.40;59.00;;;;;;5041424;28;19932;-68
2022/06/12 10:24:21;;;;;;;;;;;23.50;58.90;;;;;;5043324;28;19932;-69
2022/06/12 10:26:54;;;;;;;;;;;23.50;58.70;;;;;;5043155;28;19986;-68
2022/06/12 10:29:24;;;;;;;;;;;23.60;58.40;;;;;;5040443;28;19986;-68
2022/06/12 10:31:57;;;;;;;;;;;23.70;58.40;;;;;;5041286;28;19929;-69
2022/06/12 10:34:28;;;;;;;;;;;23.80;57.90;;;;;;5035994;28;19932;-69
2022/06/12 10:36:55;;;;;;;;;;;23.80;58.30;;;;;;5043307;28;19928;-67
2022/06/12 10:39:22;;;;;;;;;;;23.90;57.70;;;;;;5042280;28;19933;-69
2022/06/12 10:41:51;;;;;;;;;;;24.00;57.50;;;;;;5042247;28;19928;-68
2022/06/12 10:44:34;;;;;;;;;;;24.00;57.40;;;;;;5042444;28;20077;-69
2022/06/12 10:47:11;;;;;;;;;;;24.10;57.20;;;;;;5040620;28;19929;-68
2022/06/12 10:49:38;;;;;;;;;;;24.20;57.10;;;;;;5041135;28;19929;-69
2022/06/12 10:52:05;;;;;;;;;;;24.30;57.00;;;;;;5038055;28;20408;-67
2022/06/12 10:54:32;;;;;;;;;;;24.30;56.80;;;;;;5040258;28;19960;-69
2022/06/12 10:57:03;;;;;;;;;;;24.40;56.40;;;;;;5040493;28;19990;-68
2022/06/12 10:59:34;;;;;;;;;;;24.50;56.50;;;;;;5038435;28;19936;-67
2022/06/12 11:02:19;;;;;;;;;;;24.60;56.00;;;;;;5040278;28;19928;-67
2022/06/12 11:04:50;;;;;;;;;;;24.60;55.90;;;;;;5038486;28;20141;-68
2022/06/12 11:07:21;;;;;;;;;;;24.70;55.70;;;;;;5038686;28;19972;-72
2022/06/12 11:10:06;;;;;;;;;;;24.80;55.80;;;;;;5039606;28;20039;-69
2022/06/12 11:12:43;;;;;;;;;;;24.90;55.50;;;;;;5038460;28;20309;-68
2022/06/12 11:15:18;;;;;;;;;;;24.90;55.10;;;;;;5042031;28;19935;-67
2022/06/12 11:17:51;;;;;;;;;;;25.00;54.80;;;;;;5035694;28;20028;-68
2022/06/12 11:20:24;;;;;;;;;;;25.10;55.10;;;;;;5032604;28;20505;-69
2022/06/12 11:22:54;;;;;;;;;;;25.10;55.00;;;;;;5040051;28;19935;-68
2022/06/12 11:25:29;;;;;;;;;;;25.20;54.60;;;;;;5040864;28;19936;-68
2022/06/12 11:28:00;;;;;;;;;;;25.30;54.60;;;;;;5039619;28;19932;-70
2022/06/12 11:30:34;;;;;;;;;;;25.40;54.50;;;;;;5039221;28;19951;-69
2022/06/12 11:33:12;;;;;;;;;;;25.40;54.40;;;;;;5041082;28;19929;-69
2022/06/12 11:35:43;;;;;;;;;;;25.50;54.40;;;;;;5039942;28;19932;-72
2022/06/12 11:38:24;;;;;;;;;;;25.60;54.20;;;;;;5042276;28;20024;-71
2022/06/12 11:40:53;;;;;;;;;;;25.60;53.70;;;;;;5039401;28;19928;-68
2022/06/12 11:43:26;;;;;;;;;;;25.70;53.70;;;;;;5042104;28;19963;-68
2022/06/12 11:46:03;;;;;;;;;;;25.80;53.80;;;;;;5039781;28;19972;-68
2022/06/12 11:48:37;;;;;;;;;;;25.90;53.70;;;;;;5037905;28;20019;-70
2022/06/12 11:51:09;;;;;;;;;;;25.90;53.40;;;;;;5039104;28;19964;-70
2022/06/12 11:53:40;;;;;;;;;;;25.90;53.10;;;;;;5042656;28;20163;-70
2022/06/12 11:56:15;;;;;;;;;;;26.00;53.10;;;;;;5041325;28;19925;-71
2022/06/12 11:58:48;;;;;;;;;;;26.10;53.00;;;;;;5044259;28;19928;-71
2022/06/12 12:01:21;;;;;;;;;;;26.20;53.20;;;;;;5033738;28;19929;-67
2022/06/12 12:04:06;;;;;;;;;;;26.20;53.20;;;;;;5031980;28;20467;-73
2022/06/12 12:06:42;;;;;;;;;;;26.30;52.90;;;;;;5041214;28;19939;-72
2022/06/12 12:09:17;;;;;;;;;;;26.40;53.00;;;;;;5041182;28;20420;-69
2022/06/12 12:11:45;;;;;;;;;;;26.40;52.40;;;;;;5040806;28;19935;-66
2022/06/12 12:14:15;;;;;;;;;;;26.50;52.10;;;;;;5038773;28;20008;-70
2022/06/12 12:16:45;;;;;;;;;;;26.60;52.70;;;;;;5040288;28;20023;-69
2022/06/12 12:19:15;;;;;;;;;;;26.60;52.20;;;;;;5039095;28;20304;-67
2022/06/12 12:21:43;;;;;;;;;;;26.70;52.10;;;;;;5039063;28;19955;-69
2022/06/12 12:24:14;;;;;;;;;;;26.80;51.60;;;;;;5041101;28;19929;-71
2022/06/12 12:26:42;;;;;;;;;;;26.80;51.20;;;;;;5041698;28;20270;-69
2022/06/12 12:29:11;;;;;;;;;;;26.80;50.90;;;;;;5035890;28;19976;-66
2022/06/12 12:31:38;;;;;;;;;;;26.90;51.10;;;;;;5038022;28;20090;-71
2022/06/12 12:34:07;;;;;;;;;;;27.00;51.10;;;;;;5036632;28;19983;-67
2022/06/12 12:42:18;;;;;;;;;;;27.10;50.30;;;;;;5036266;28;20031;-69
2022/06/12 12:44:46;;;;;;;;;;;27.20;49.70;;;;;;5040650;28;19932;-67
2022/06/12 12:47:17;;;;;;;;;;;27.30;50.20;;;;;;5037858;28;20572;-69
2022/06/12 12:49:46;;;;;;;;;;;27.30;50.20;;;;;;5042430;28;19928;-68
2022/06/12 12:52:15;;;;;;;;;;;27.40;50.00;;;;;;5037405;28;19972;-68
2022/06/12 12:54:43;;;;;;;;;;;27.40;49.90;;;;;;5042803;28;20031;-72
2022/06/12 12:57:09;;;;;;;;;;;27.50;50.10;;;;;;5044023;28;19935;-71
2022/06/12 12:59:38;;;;;;;;;;;27.50;50.20;;;;;;5042607;28;19929;-68
2022/06/12 13:02:16;;;;;;;;;;;27.60;50.30;;;;;;5043386;28;19936;-68
2022/06/12 13:04:45;;;;;;;;;;;27.70;50.10;;;;;;5045123;28;19925;-69
2022/06/12 13:07:17;;;;;;;;;;;27.80;49.40;;;;;;5044136;28;19932;-72
2022/06/12 13:10:02;;;;;;;;;;;27.90;49.50;;;;;;5041107;28;19929;-68
2022/06/12 13:12:36;;;;;;;;;;;27.90;49.50;;;;;;5005549;28;19925;-70
2022/06/12 13:15:12;;;;;;;;;;;27.90;49.30;;;;;;5045456;28;20463;-68
2022/06/12 13:17:44;;;;;;;;;;;28.00;49.40;;;;;;5041779;28;20446;-72
2022/06/12 13:20:28;;;;;;;;;;;28.10;49.40;;;;;;5041557;28;19975;-72
2022/06/12 13:23:02;;;;;;;;;;;28.20;49.20;;;;;;5029802;28;19933;-69
2022/06/12 13:25:32;;;;;;;;;;;28.20;49.00;;;;;;5044580;28;19929;-68
2022/06/12 13:27:59;;;;;;;;;;;28.20;48.80;;;;;;5042398;28;19932;-68
2022/06/12 13:30:27;;;;;;;;;;;28.30;48.90;;;;;;5039585;28;19929;-70
2022/06/12 13:32:54;;;;;;;;;;;28.30;49.00;;;;;;5039222;28;19929;-71
2022/06/12 13:35:29;;;;;;;;;;;28.40;48.50;;;;;;5043597;28;19932;-69
2022/06/12 13:37:57;;;;;;;;;;;28.40;48.50;;;;;;5041249;28;20304;-69
2022/06/12 13:40:26;;;;;;;;;;;28.40;48.40;;;;;;5042590;28;19929;-70
2022/06/12 13:43:02;;;;;;;;;;;28.50;48.50;;;;;;5040921;28;20384;-69
2022/06/12 13:45:29;;;;;;;;;;;28.50;48.40;;;;;;5042460;28;19936;-66
2022/06/12 13:47:56;;;;;;;;;;;28.50;48.40;;;;;;5039310;28;20320;-71
2022/06/12 13:50:27;;;;;;;;;;;28.60;48.60;;;;;;5042926;28;19933;-71
2022/06/12 13:52:57;;;;;;;;;;;28.60;48.20;;;;;;5044460;28;20014;-72
2022/06/12 13:55:26;;;;;;;;;;;28.60;48.10;;;;;;5043130;28;19929;-69
2022/06/12 13:57:54;;;;;;;;;;;28.70;48.10;;;;;;5043664;28;19924;-69
2022/06/12 14:00:31;;;;;;;;;;;28.70;48.20;;;;;;5041958;28;19929;-67
2022/06/12 14:02:57;;;;;;;;;;;28.80;48.30;;;;;;5038575;28;19936;-70
2022/06/12 14:05:25;;;;;;;;;;;28.80;47.80;;;;;;5043336;28;20428;-70
2022/06/12 14:07:52;;;;;;;;;;;28.90;48.10;;;;;;5042158;28;19929;-73
2022/06/12 14:10:24;;;;;;;;;;;29.00;47.90;;;;;;5043440;28;19928;-68
2022/06/12 14:12:52;;;;;;;;;;;29.00;47.80;;;;;;5042623;28;19932;-67
2022/06/12 14:15:26;;;;;;;;;;;29.20;47.90;;;;;;5043004;28;19929;-67
2022/06/12 14:17:53;;;;;;;;;;;29.20;47.70;;;;;;5041900;28;20340;-70
2022/06/12 14:20:23;;;;;;;;;;;29.30;46.80;;;;;;5040889;28;19936;-69
2022/06/12 14:22:52;;;;;;;;;;;29.30;47.10;;;;;;5042741;28;19936;-68
2022/06/12 14:25:20;;;;;;;;;;;29.40;47.00;;;;;;5043040;28;19936;-67
2022/06/12 14:27:56;;;;;;;;;;;29.50;47.10;;;;;;5041902;28;20317;-67
2022/06/12 14:30:38;;;;;;;;;;;29.60;47.00;;;;;;5029990;28;19963;-70
2022/06/12 14:33:19;;;;;;;;;;;29.60;47.10;;;;;;5038187;28;19975;-70
2022/06/12 14:35:46;;;;;;;;;;;29.70;47.10;;;;;;5041966;28;19937;-69
2022/06/12 14:38:17;;;;;;;;;;;29.80;47.00;;;;;;5042599;28;19936;-67
2022/06/12 14:40:43;;;;;;;;;;;29.90;46.90;;;;;;5040831;28;19939;-68
2022/06/12 14:43:15;;;;;;;;;;;30.00;46.90;;;;;;5043376;28;19937;-70